sensor_id;sensor_type;location;lat;lon;timestamp;P1;durP1;ratioP1;P2;durP2;ratioP2
21168;SDS011;10742;51.816;8.662;2023-07-13T00:01:13;6.65;;;2.60;;
21168;SDS011;10742;51.816;8.662;2023-07-13T00:04:16;5.63;;;2.40;;
21168;SDS011;10742;51.816;8.662;2023-07-13T00:07:21;6.15;;;2.38;;
21168;SDS011;10742;51.816;8.662;2023-07-13T00:10:23;6.47;;;2.30;;
21168;SDS011;10742;51.816;8.662;2023-07-13T00:13:26;6.13;;;2.63;;
21168;SDS011;10742;51.816;8.662;2023-07-13T00:16:29;5.68;;;2.65;;
21168;SDS011;10742;51.816;8.662;2023-07-13T00:19:32;4.47;;;2.40;;
21168;SDS011;10742;51.816;8.662;2023-07-13T00:22:34;6.43;;;2.50;;
21168;SDS011;10742;51.816;8.662;2023-07-13T00:25:37;10.70;;;2.30;;
21168;SDS011;10742;51.816;8.662;2023-07-13T00:28:39;7.33;;;2.53;;
21168;SDS011;10742;51.816;8.662;2023-07-13T00:31:43;5.32;;;2.33;;
21168;SDS011;10742;51.816;8.662;2023-07-13T00:34:46;3.97;;;2.30;;
21168;SDS011;10742;51.816;8.662;2023-07-13T00:37:49;7.13;;;2.63;;
21168;SDS011;10742;51.816;8.662;2023-07-13T00:40:52;10.37;;;2.70;;
21168;SDS011;10742;51.816;8.662;2023-07-13T00:43:55;6.50;;;2.30;;
21168;SDS011;10742;51.816;8.662;2023-07-13T00:46:58;7.77;;;2.40;;
21168;SDS011;10742;51.816;8.662;2023-07-13T00:50:01;10.83;;;2.53;;
21168;SDS011;10742;51.816;8.662;2023-07-13T00:53:05;8.97;;;2.80;;
21168;SDS011;10742;51.816;8.662;2023-07-13T00:56:09;7.97;;;2.63;;
21168;SDS011;10742;51.816;8.662;2023-07-13T00:59:13;5.67;;;2.50;;
21168;SDS011;10742;51.816;8.662;2023-07-13T01:02:20;6.93;;;2.80;;
21168;SDS011;10742;51.816;8.662;2023-07-13T01:05:23;7.97;;;2.70;;
21168;SDS011;10742;51.816;8.662;2023-07-13T01:08:28;6.93;;;2.53;;
21168;SDS011;10742;51.816;8.662;2023-07-13T01:11:32;4.53;;;2.67;;
21168;SDS011;10742;51.816;8.662;2023-07-13T01:14:37;9.50;;;2.73;;
21168;SDS011;10742;51.816;8.662;2023-07-13T01:17:40;5.17;;;2.33;;
21168;SDS011;10742;51.816;8.662;2023-07-13T01:20:53;5.87;;;2.70;;
21168;SDS011;10742;51.816;8.662;2023-07-13T01:24:03;9.70;;;3.17;;
21168;SDS011;10742;51.816;8.662;2023-07-13T01:27:09;5.40;;;2.73;;
21168;SDS011;10742;51.816;8.662;2023-07-13T01:30:14;6.57;;;3.23;;
21168;SDS011;10742;51.816;8.662;2023-07-13T01:33:17;4.87;;;3.10;;
21168;SDS011;10742;51.816;8.662;2023-07-13T01:36:20;8.50;;;3.70;;
21168;SDS011;10742;51.816;8.662;2023-07-13T01:39:23;8.73;;;3.60;;
21168;SDS011;10742;51.816;8.662;2023-07-13T01:42:25;9.03;;;3.67;;
21168;SDS011;10742;51.816;8.662;2023-07-13T01:45:29;9.87;;;3.80;;
21168;SDS011;10742;51.816;8.662;2023-07-13T01:48:32;5.27;;;3.70;;
21168;SDS011;10742;51.816;8.662;2023-07-13T01:51:35;5.97;;;3.87;;
21168;SDS011;10742;51.816;8.662;2023-07-13T01:54:38;8.07;;;3.87;;
21168;SDS011;10742;51.816;8.662;2023-07-13T01:57:41;9.00;;;4.43;;
21168;SDS011;10742;51.816;8.662;2023-07-13T02:00:44;5.87;;;4.17;;
21168;SDS011;10742;51.816;8.662;2023-07-13T02:03:46;10.93;;;5.33;;
21168;SDS011;10742;51.816;8.662;2023-07-13T02:06:49;9.50;;;5.23;;
21168;SDS011;10742;51.816;8.662;2023-07-13T02:09:51;10.33;;;5.47;;
21168;SDS011;10742;51.816;8.662;2023-07-13T02:12:57;13.83;;;6.57;;
21168;SDS011;10742;51.816;8.662;2023-07-13T02:16:00;13.00;;;7.03;;
21168;SDS011;10742;51.816;8.662;2023-07-13T02:19:02;9.40;;;8.07;;
21168;SDS011;10742;51.816;8.662;2023-07-13T02:22:05;9.70;;;6.93;;
21168;SDS011;10742;51.816;8.662;2023-07-13T02:25:08;19.30;;;10.50;;
21168;SDS011;10742;51.816;8.662;2023-07-13T02:28:11;11.17;;;8.33;;
21168;SDS011;10742;51.816;8.662;2023-07-13T02:31:14;14.97;;;10.57;;
21168;SDS011;10742;51.816;8.662;2023-07-13T02:34:20;16.23;;;11.90;;
21168;SDS011;10742;51.816;8.662;2023-07-13T02:37:22;21.77;;;14.23;;
21168;SDS011;10742;51.816;8.662;2023-07-13T02:40:25;19.83;;;13.57;;
21168;SDS011;10742;51.816;8.662;2023-07-13T02:43:28;18.87;;;12.03;;
21168;SDS011;10742;51.816;8.662;2023-07-13T02:46:32;22.90;;;12.80;;
21168;SDS011;10742;51.816;8.662;2023-07-13T02:49:36;19.00;;;12.10;;
21168;SDS011;10742;51.816;8.662;2023-07-13T02:52:39;17.77;;;12.60;;
21168;SDS011;10742;51.816;8.662;2023-07-13T02:55:41;20.17;;;13.37;;
21168;SDS011;10742;51.816;8.662;2023-07-13T02:58:49;18.17;;;11.20;;
21168;SDS011;10742;51.816;8.662;2023-07-13T03:01:52;18.90;;;11.73;;
21168;SDS011;10742;51.816;8.662;2023-07-13T03:04:55;16.33;;;10.47;;
21168;SDS011;10742;51.816;8.662;2023-07-13T03:07:58;28.27;;;12.10;;
21168;SDS011;10742;51.816;8.662;2023-07-13T03:11:06;13.43;;;8.97;;
21168;SDS011;10742;51.816;8.662;2023-07-13T03:14:15;12.30;;;9.37;;
21168;SDS011;10742;51.816;8.662;2023-07-13T03:17:17;12.20;;;7.83;;
21168;SDS011;10742;51.816;8.662;2023-07-13T03:20:20;15.17;;;9.17;;
21168;SDS011;10742;51.816;8.662;2023-07-13T03:23:22;10.77;;;7.47;;
21168;SDS011;10742;51.816;8.662;2023-07-13T03:26:26;10.87;;;7.47;;
21168;SDS011;10742;51.816;8.662;2023-07-13T03:29:30;9.50;;;6.03;;
21168;SDS011;10742;51.816;8.662;2023-07-13T03:32:33;14.07;;;7.67;;
21168;SDS011;10742;51.816;8.662;2023-07-13T03:35:39;8.47;;;4.17;;
21168;SDS011;10742;51.816;8.662;2023-07-13T03:38:43;8.43;;;3.90;;
21168;SDS011;10742;51.816;8.662;2023-07-13T03:41:46;6.90;;;4.30;;
21168;SDS011;10742;51.816;8.662;2023-07-13T03:44:49;9.30;;;4.53;;
21168;SDS011;10742;51.816;8.662;2023-07-13T03:47:55;7.87;;;4.00;;
21168;SDS011;10742;51.816;8.662;2023-07-13T03:50:59;7.30;;;4.70;;
21168;SDS011;10742;51.816;8.662;2023-07-13T03:54:03;9.60;;;5.33;;
21168;SDS011;10742;51.816;8.662;2023-07-13T03:57:06;7.70;;;4.53;;
21168;SDS011;10742;51.816;8.662;2023-07-13T04:00:11;11.10;;;4.07;;
21168;SDS011;10742;51.816;8.662;2023-07-13T04:03:17;6.37;;;3.80;;
21168;SDS011;10742;51.816;8.662;2023-07-13T04:06:20;6.37;;;3.77;;
21168;SDS011;10742;51.816;8.662;2023-07-13T04:09:28;10.23;;;3.70;;
21168;SDS011;10742;51.816;8.662;2023-07-13T04:12:31;12.57;;;3.77;;
21168;SDS011;10742;51.816;8.662;2023-07-13T04:15:34;8.57;;;3.87;;
21168;SDS011;10742;51.816;8.662;2023-07-13T04:18:36;9.77;;;3.70;;
21168;SDS011;10742;51.816;8.662;2023-07-13T04:21:39;6.17;;;3.43;;
21168;SDS011;10742;51.816;8.662;2023-07-13T04:24:41;8.77;;;3.00;;
21168;SDS011;10742;51.816;8.662;2023-07-13T04:27:44;6.63;;;3.03;;
21168;SDS011;10742;51.816;8.662;2023-07-13T04:30:46;12.17;;;3.50;;
21168;SDS011;10742;51.816;8.662;2023-07-13T04:33:49;7.97;;;3.20;;
21168;SDS011;10742;51.816;8.662;2023-07-13T04:36:52;3.57;;;2.87;;
21168;SDS011;10742;51.816;8.662;2023-07-13T04:39:55;10.03;;;3.00;;
21168;SDS011;10742;51.816;8.662;2023-07-13T04:42:57;11.77;;;3.10;;
21168;SDS011;10742;51.816;8.662;2023-07-13T04:46:06;10.37;;;2.90;;
21168;SDS011;10742;51.816;8.662;2023-07-13T04:49:10;11.20;;;2.77;;
21168;SDS011;10742;51.816;8.662;2023-07-13T04:52:13;6.67;;;2.53;;
21168;SDS011;10742;51.816;8.662;2023-07-13T04:55:16;6.93;;;2.90;;
21168;SDS011;10742;51.816;8.662;2023-07-13T04:58:20;9.13;;;2.77;;
21168;SDS011;10742;51.816;8.662;2023-07-13T05:01:23;7.90;;;2.67;;
21168;SDS011;10742;51.816;8.662;2023-07-13T05:04:26;8.77;;;2.73;;
21168;SDS011;10742;51.816;8.662;2023-07-13T05:07:28;5.07;;;2.60;;
21168;SDS011;10742;51.816;8.662;2023-07-13T05:10:31;15.80;;;2.90;;
21168;SDS011;10742;51.816;8.662;2023-07-13T05:13:34;10.47;;;3.07;;
21168;SDS011;10742;51.816;8.662;2023-07-13T05:16:39;7.47;;;2.37;;
21168;SDS011;10742;51.816;8.662;2023-07-13T05:19:41;8.83;;;2.77;;
21168;SDS011;10742;51.816;8.662;2023-07-13T05:22:44;10.37;;;3.00;;
21168;SDS011;10742;51.816;8.662;2023-07-13T05:25:49;5.83;;;2.53;;
21168;SDS011;10742;51.816;8.662;2023-07-13T05:28:51;4.67;;;2.30;;
21168;SDS011;10742;51.816;8.662;2023-07-13T05:31:53;7.83;;;2.53;;
21168;SDS011;10742;51.816;8.662;2023-07-13T05:34:56;3.73;;;2.20;;
21168;SDS011;10742;51.816;8.662;2023-07-13T05:37:59;10.50;;;2.50;;
21168;SDS011;10742;51.816;8.662;2023-07-13T05:41:01;6.53;;;2.03;;
21168;SDS011;10742;51.816;8.662;2023-07-13T05:44:06;3.95;;;1.88;;
21168;SDS011;10742;51.816;8.662;2023-07-13T05:47:09;7.30;;;2.33;;
21168;SDS011;10742;51.816;8.662;2023-07-13T05:50:11;7.70;;;2.47;;
21168;SDS011;10742;51.816;8.662;2023-07-13T05:53:14;3.70;;;1.85;;
21168;SDS011;10742;51.816;8.662;2023-07-13T05:56:17;4.40;;;2.00;;
21168;SDS011;10742;51.816;8.662;2023-07-13T05:59:19;6.78;;;2.00;;
21168;SDS011;10742;51.816;8.662;2023-07-13T06:02:22;8.75;;;2.47;;
21168;SDS011;10742;51.816;8.662;2023-07-13T06:05:25;4.70;;;2.10;;
21168;SDS011;10742;51.816;8.662;2023-07-13T06:08:27;10.15;;;2.25;;
21168;SDS011;10742;51.816;8.662;2023-07-13T06:11:30;8.57;;;1.77;;
21168;SDS011;10742;51.816;8.662;2023-07-13T06:14:32;7.20;;;1.77;;
21168;SDS011;10742;51.816;8.662;2023-07-13T06:17:35;4.90;;;1.85;;
21168;SDS011;10742;51.816;8.662;2023-07-13T06:20:37;6.43;;;2.08;;
21168;SDS011;10742;51.816;8.662;2023-07-13T06:23:40;4.88;;;1.80;;
21168;SDS011;10742;51.816;8.662;2023-07-13T06:26:43;7.03;;;1.65;;
21168;SDS011;10742;51.816;8.662;2023-07-13T06:29:46;4.93;;;1.80;;
21168;SDS011;10742;51.816;8.662;2023-07-13T06:32:49;5.55;;;1.85;;
21168;SDS011;10742;51.816;8.662;2023-07-13T06:35:52;9.80;;;2.03;;
21168;SDS011;10742;51.816;8.662;2023-07-13T06:38:56;8.02;;;1.80;;
21168;SDS011;10742;51.816;8.662;2023-07-13T06:41:59;5.03;;;1.73;;
21168;SDS011;10742;51.816;8.662;2023-07-13T06:45:05;7.18;;;1.77;;
21168;SDS011;10742;51.816;8.662;2023-07-13T06:48:08;6.13;;;1.45;;
21168;SDS011;10742;51.816;8.662;2023-07-13T06:51:10;13.55;;;2.50;;
21168;SDS011;10742;51.816;8.662;2023-07-13T06:54:13;5.15;;;2.17;;
21168;SDS011;10742;51.816;8.662;2023-07-13T06:57:16;4.18;;;1.90;;
21168;SDS011;10742;51.816;8.662;2023-07-13T07:00:19;7.35;;;2.25;;
21168;SDS011;10742;51.816;8.662;2023-07-13T07:03:21;6.70;;;2.08;;
21168;SDS011;10742;51.816;8.662;2023-07-13T07:06:24;7.97;;;2.05;;
21168;SDS011;10742;51.816;8.662;2023-07-13T07:09:27;11.20;;;2.30;;
21168;SDS011;10742;51.816;8.662;2023-07-13T07:12:32;8.20;;;2.08;;
21168;SDS011;10742;51.816;8.662;2023-07-13T07:15:35;5.63;;;1.70;;
21168;SDS011;10742;51.816;8.662;2023-07-13T07:18:37;4.00;;;1.90;;
21168;SDS011;10742;51.816;8.662;2023-07-13T07:21:43;11.65;;;2.03;;
21168;SDS011;10742;51.816;8.662;2023-07-13T07:24:46;7.88;;;1.95;;
21168;SDS011;10742;51.816;8.662;2023-07-13T07:27:48;5.90;;;1.65;;
21168;SDS011;10742;51.816;8.662;2023-07-13T07:30:55;9.68;;;2.20;;
21168;SDS011;10742;51.816;8.662;2023-07-13T07:34:02;8.25;;;2.20;;
21168;SDS011;10742;51.816;8.662;2023-07-13T07:37:05;6.00;;;2.30;;
21168;SDS011;10742;51.816;8.662;2023-07-13T07:40:11;12.52;;;2.00;;
21168;SDS011;10742;51.816;8.662;2023-07-13T07:43:16;6.47;;;2.00;;
21168;SDS011;10742;51.816;8.662;2023-07-13T07:46:19;10.30;;;2.30;;
21168;SDS011;10742;51.816;8.662;2023-07-13T07:49:21;5.13;;;2.08;;
21168;SDS011;10742;51.816;8.662;2023-07-13T07:52:24;6.15;;;1.92;;
21168;SDS011;10742;51.816;8.662;2023-07-13T07:55:26;8.27;;;2.25;;
21168;SDS011;10742;51.816;8.662;2023-07-13T07:58:32;7.32;;;2.30;;
21168;SDS011;10742;51.816;8.662;2023-07-13T08:01:37;4.10;;;2.03;;
21168;SDS011;10742;51.816;8.662;2023-07-13T08:05:00;12.15;;;2.20;;
21168;SDS011;10742;51.816;8.662;2023-07-13T08:08:06;12.15;;;2.08;;
21168;SDS011;10742;51.816;8.662;2023-07-13T08:11:09;8.73;;;2.08;;
21168;SDS011;10742;51.816;8.662;2023-07-13T08:14:15;9.90;;;2.10;;
21168;SDS011;10742;51.816;8.662;2023-07-13T08:17:18;8.55;;;2.20;;
21168;SDS011;10742;51.816;8.662;2023-07-13T08:20:23;8.07;;;1.85;;
21168;SDS011;10742;51.816;8.662;2023-07-13T08:23:26;9.38;;;2.30;;
21168;SDS011;10742;51.816;8.662;2023-07-13T08:26:29;8.90;;;2.65;;
21168;SDS011;10742;51.816;8.662;2023-07-13T08:29:31;8.20;;;2.22;;
21168;SDS011;10742;51.816;8.662;2023-07-13T08:32:35;6.93;;;2.00;;
21168;SDS011;10742;51.816;8.662;2023-07-13T08:35:40;8.45;;;2.40;;
21168;SDS011;10742;51.816;8.662;2023-07-13T08:38:43;6.15;;;2.05;;
21168;SDS011;10742;51.816;8.662;2023-07-13T08:41:46;7.68;;;2.25;;
21168;SDS011;10742;51.816;8.662;2023-07-13T08:51:40;9.13;;;2.13;;
21168;SDS011;10742;51.816;8.662;2023-07-13T08:54:48;10.93;;;2.83;;
21168;SDS011;10742;51.816;8.662;2023-07-13T08:58:15;6.53;;;2.03;;
21168;SDS011;10742;51.816;8.662;2023-07-13T09:01:22;7.95;;;2.13;;
21168;SDS011;10742;51.816;8.662;2023-07-13T09:04:28;7.82;;;2.10;;
21168;SDS011;10742;51.816;8.662;2023-07-13T09:11:23;4.80;;;1.77;;
21168;SDS011;10742;51.816;8.662;2023-07-13T09:17:54;4.00;;;1.90;;
21168;SDS011;10742;51.816;8.662;2023-07-13T09:27:39;5.43;;;2.00;;
21168;SDS011;10742;51.816;8.662;2023-07-13T09:33:56;10.82;;;2.20;;
21168;SDS011;10742;51.816;8.662;2023-07-13T09:37:00;6.70;;;2.15;;
21168;SDS011;10742;51.816;8.662;2023-07-13T09:40:02;5.50;;;1.83;;
21168;SDS011;10742;51.816;8.662;2023-07-13T09:43:07;8.88;;;2.28;;
21168;SDS011;10742;51.816;8.662;2023-07-13T09:46:21;8.63;;;2.30;;
21168;SDS011;10742;51.816;8.662;2023-07-13T09:49:27;9.85;;;2.20;;
21168;SDS011;10742;51.816;8.662;2023-07-13T09:52:45;5.93;;;2.13;;
21168;SDS011;10742;51.816;8.662;2023-07-13T09:55:49;5.68;;;1.90;;
21168;SDS011;10742;51.816;8.662;2023-07-13T09:58:53;7.40;;;2.17;;
21168;SDS011;10742;51.816;8.662;2023-07-13T10:01:56;5.20;;;1.90;;
21168;SDS011;10742;51.816;8.662;2023-07-13T10:08:01;5.38;;;2.10;;
21168;SDS011;10742;51.816;8.662;2023-07-13T10:14:21;9.80;;;2.38;;
21168;SDS011;10742;51.816;8.662;2023-07-13T10:17:30;4.25;;;1.83;;
21168;SDS011;10742;51.816;8.662;2023-07-13T10:20:34;6.30;;;1.92;;
21168;SDS011;10742;51.816;8.662;2023-07-13T10:23:37;7.70;;;2.30;;
21168;SDS011;10742;51.816;8.662;2023-07-13T10:26:41;8.05;;;2.03;;
21168;SDS011;10742;51.816;8.662;2023-07-13T10:29:53;7.00;;;2.40;;
21168;SDS011;10742;51.816;8.662;2023-07-13T10:33:03;4.22;;;1.95;;
21168;SDS011;10742;51.816;8.662;2023-07-13T10:36:17;4.53;;;1.88;;
21168;SDS011;10742;51.816;8.662;2023-07-13T10:39:30;4.22;;;2.10;;
21168;SDS011;10742;51.816;8.662;2023-07-13T10:42:36;7.60;;;2.20;;
21168;SDS011;10742;51.816;8.662;2023-07-13T10:45:41;6.43;;;2.10;;
21168;SDS011;10742;51.816;8.662;2023-07-13T10:48:48;7.22;;;2.00;;
21168;SDS011;10742;51.816;8.662;2023-07-13T10:51:54;3.70;;;1.73;;
21168;SDS011;10742;51.816;8.662;2023-07-13T10:54:57;5.70;;;1.90;;
21168;SDS011;10742;51.816;8.662;2023-07-13T10:58:03;5.03;;;2.00;;
21168;SDS011;10742;51.816;8.662;2023-07-13T11:01:13;6.57;;;2.20;;
21168;SDS011;10742;51.816;8.662;2023-07-13T11:04:17;6.50;;;2.00;;
21168;SDS011;10742;51.816;8.662;2023-07-13T11:07:24;5.10;;;1.77;;
21168;SDS011;10742;51.816;8.662;2023-07-13T11:10:50;4.38;;;1.70;;
21168;SDS011;10742;51.816;8.662;2023-07-13T11:16:56;5.60;;;1.60;;
21168;SDS011;10742;51.816;8.662;2023-07-13T11:26:40;3.88;;;1.83;;
21168;SDS011;10742;51.816;8.662;2023-07-13T11:29:43;12.00;;;2.05;;
21168;SDS011;10742;51.816;8.662;2023-07-13T11:32:47;3.85;;;1.90;;
21168;SDS011;10742;51.816;8.662;2023-07-13T11:39:02;5.30;;;1.98;;
21168;SDS011;10742;51.816;8.662;2023-07-13T11:42:15;5.35;;;1.60;;
21168;SDS011;10742;51.816;8.662;2023-07-13T11:45:20;2.58;;;1.60;;
21168;SDS011;10742;51.816;8.662;2023-07-13T11:48:28;7.32;;;1.70;;
21168;SDS011;10742;51.816;8.662;2023-07-13T11:51:34;5.53;;;1.67;;
21168;SDS011;10742;51.816;8.662;2023-07-13T11:54:43;4.00;;;1.73;;
21168;SDS011;10742;51.816;8.662;2023-07-13T11:57:59;6.43;;;2.10;;
21168;SDS011;10742;51.816;8.662;2023-07-13T12:01:03;7.20;;;2.13;;
21168;SDS011;10742;51.816;8.662;2023-07-13T12:04:08;4.60;;;1.70;;
21168;SDS011;10742;51.816;8.662;2023-07-13T12:07:31;6.20;;;1.58;;
21168;SDS011;10742;51.816;8.662;2023-07-13T12:10:35;6.85;;;1.80;;
21168;SDS011;10742;51.816;8.662;2023-07-13T12:13:37;6.30;;;2.17;;
21168;SDS011;10742;51.816;8.662;2023-07-13T12:16:43;4.38;;;2.03;;
21168;SDS011;10742;51.816;8.662;2023-07-13T12:19:51;4.15;;;1.98;;
21168;SDS011;10742;51.816;8.662;2023-07-13T12:22:54;6.03;;;2.13;;
21168;SDS011;10742;51.816;8.662;2023-07-13T12:25:59;6.63;;;2.00;;
21168;SDS011;10742;51.816;8.662;2023-07-13T12:29:04;4.30;;;1.88;;
21168;SDS011;10742;51.816;8.662;2023-07-13T12:32:08;3.42;;;2.00;;
21168;SDS011;10742;51.816;8.662;2023-07-13T12:35:15;3.80;;;1.90;;
21168;SDS011;10742;51.816;8.662;2023-07-13T12:38:24;4.60;;;2.00;;
21168;SDS011;10742;51.816;8.662;2023-07-13T12:41:27;6.85;;;1.90;;
21168;SDS011;10742;51.816;8.662;2023-07-13T12:44:30;4.30;;;2.00;;
21168;SDS011;10742;51.816;8.662;2023-07-13T12:47:43;4.47;;;1.88;;
21168;SDS011;10742;51.816;8.662;2023-07-13T12:50:50;5.82;;;2.03;;
21168;SDS011;10742;51.816;8.662;2023-07-13T12:54:15;6.28;;;1.88;;
21168;SDS011;10742;51.816;8.662;2023-07-13T12:57:19;7.00;;;1.95;;
21168;SDS011;10742;51.816;8.662;2023-07-13T13:03:35;6.03;;;2.00;;
21168;SDS011;10742;51.816;8.662;2023-07-13T13:06:41;4.65;;;2.20;;
21168;SDS011;10742;51.816;8.662;2023-07-13T13:09:45;6.38;;;2.28;;
21168;SDS011;10742;51.816;8.662;2023-07-13T13:12:49;5.25;;;2.20;;
21168;SDS011;10742;51.816;8.662;2023-07-13T13:15:52;8.27;;;2.40;;
21168;SDS011;10742;51.816;8.662;2023-07-13T13:18:55;7.55;;;2.20;;
21168;SDS011;10742;51.816;8.662;2023-07-13T13:21:59;10.15;;;2.45;;
21168;SDS011;10742;51.816;8.662;2023-07-13T13:25:01;4.95;;;2.38;;
21168;SDS011;10742;51.816;8.662;2023-07-13T13:28:05;7.43;;;2.42;;
21168;SDS011;10742;51.816;8.662;2023-07-13T13:31:16;8.50;;;2.28;;
21168;SDS011;10742;51.816;8.662;2023-07-13T13:34:19;3.75;;;1.90;;
21168;SDS011;10742;51.816;8.662;2023-07-13T13:37:25;7.38;;;2.03;;
21168;SDS011;10742;51.816;8.662;2023-07-13T13:40:28;5.47;;;2.40;;
21168;SDS011;10742;51.816;8.662;2023-07-13T13:43:32;5.70;;;2.30;;
21168;SDS011;10742;51.816;8.662;2023-07-13T13:46:35;8.27;;;2.00;;
21168;SDS011;10742;51.816;8.662;2023-07-13T13:49:38;7.50;;;2.15;;
21168;SDS011;10742;51.816;8.662;2023-07-13T13:52:41;6.53;;;2.10;;
21168;SDS011;10742;51.816;8.662;2023-07-13T13:55:45;2.35;;;1.83;;
21168;SDS011;10742;51.816;8.662;2023-07-13T13:58:48;3.03;;;2.00;;
21168;SDS011;10742;51.816;8.662;2023-07-13T14:01:51;4.20;;;1.63;;
21168;SDS011;10742;51.816;8.662;2023-07-13T14:04:58;7.35;;;2.20;;
21168;SDS011;10742;51.816;8.662;2023-07-13T14:08:02;4.22;;;1.95;;
21168;SDS011;10742;51.816;8.662;2023-07-13T14:11:11;3.80;;;1.70;;
21168;SDS011;10742;51.816;8.662;2023-07-13T14:14:19;5.28;;;2.00;;
21168;SDS011;10742;51.816;8.662;2023-07-13T14:17:24;5.15;;;1.88;;
21168;SDS011;10742;51.816;8.662;2023-07-13T14:20:28;4.10;;;1.88;;
21168;SDS011;10742;51.816;8.662;2023-07-13T14:23:32;6.40;;;1.88;;
21168;SDS011;10742;51.816;8.662;2023-07-13T14:26:38;4.78;;;2.10;;
21168;SDS011;10742;51.816;8.662;2023-07-13T14:29:42;4.90;;;2.20;;
21168;SDS011;10742;51.816;8.662;2023-07-13T14:32:45;4.07;;;2.08;;
21168;SDS011;10742;51.816;8.662;2023-07-13T14:35:49;6.60;;;2.20;;
21168;SDS011;10742;51.816;8.662;2023-07-13T14:38:52;7.15;;;2.05;;
21168;SDS011;10742;51.816;8.662;2023-07-13T14:41:55;7.93;;;2.30;;
21168;SDS011;10742;51.816;8.662;2023-07-13T14:44:59;7.82;;;2.40;;
21168;SDS011;10742;51.816;8.662;2023-07-13T14:48:01;8.30;;;2.70;;
21168;SDS011;10742;51.816;8.662;2023-07-13T14:51:07;6.75;;;2.22;;
21168;SDS011;10742;51.816;8.662;2023-07-13T14:54:12;5.15;;;2.28;;
21168;SDS011;10742;51.816;8.662;2023-07-13T14:57:18;5.32;;;2.35;;
21168;SDS011;10742;51.816;8.662;2023-07-13T15:00:22;4.78;;;2.35;;
21168;SDS011;10742;51.816;8.662;2023-07-13T15:03:26;7.07;;;2.85;;
21168;SDS011;10742;51.816;8.662;2023-07-13T15:06:29;7.53;;;2.72;;
21168;SDS011;10742;51.816;8.662;2023-07-13T15:09:33;19.00;;;6.18;;
21168;SDS011;10742;51.816;8.662;2023-07-13T15:12:35;16.15;;;6.10;;
21168;SDS011;10742;51.816;8.662;2023-07-13T15:15:38;10.73;;;3.92;;
21168;SDS011;10742;51.816;8.662;2023-07-13T15:18:44;11.50;;;3.60;;
21168;SDS011;10742;51.816;8.662;2023-07-13T15:21:48;7.18;;;2.67;;
21168;SDS011;10742;51.816;8.662;2023-07-13T15:24:50;7.32;;;3.70;;
21168;SDS011;10742;51.816;8.662;2023-07-13T15:27:54;7.07;;;3.22;;
21168;SDS011;10742;51.816;8.662;2023-07-13T15:30:58;6.45;;;2.70;;
21168;SDS011;10742;51.816;8.662;2023-07-13T15:34:00;4.13;;;2.65;;
21168;SDS011;10742;51.816;8.662;2023-07-13T15:37:04;4.40;;;2.30;;
21168;SDS011;10742;51.816;8.662;2023-07-13T15:40:13;9.70;;;2.50;;
21168;SDS011;10742;51.816;8.662;2023-07-13T15:43:17;4.15;;;2.28;;
21168;SDS011;10742;51.816;8.662;2023-07-13T15:46:21;5.10;;;2.47;;
21168;SDS011;10742;51.816;8.662;2023-07-13T15:49:25;3.38;;;2.05;;
21168;SDS011;10742;51.816;8.662;2023-07-13T15:52:34;4.25;;;2.65;;
21168;SDS011;10742;51.816;8.662;2023-07-13T15:55:37;6.65;;;2.40;;
21168;SDS011;10742;51.816;8.662;2023-07-13T15:58:41;3.58;;;2.90;;
21168;SDS011;10742;51.816;8.662;2023-07-13T16:01:44;4.03;;;2.60;;
21168;SDS011;10742;51.816;8.662;2023-07-13T16:04:48;6.00;;;4.23;;
21168;SDS011;10742;51.816;8.662;2023-07-13T16:07:51;6.50;;;4.50;;
21168;SDS011;10742;51.816;8.662;2023-07-13T16:10:55;6.25;;;5.13;;
21168;SDS011;10742;51.816;8.662;2023-07-13T16:13:58;6.57;;;3.38;;
21168;SDS011;10742;51.816;8.662;2023-07-13T16:17:01;4.38;;;3.30;;
21168;SDS011;10742;51.816;8.662;2023-07-13T16:20:04;4.43;;;2.92;;
21168;SDS011;10742;51.816;8.662;2023-07-13T16:23:08;6.47;;;4.07;;
21168;SDS011;10742;51.816;8.662;2023-07-13T16:26:32;7.82;;;6.43;;
21168;SDS011;10742;51.816;8.662;2023-07-13T16:29:46;8.90;;;6.25;;
21168;SDS011;10742;51.816;8.662;2023-07-13T16:32:48;9.82;;;7.82;;
21168;SDS011;10742;51.816;8.662;2023-07-13T16:35:54;18.52;;;12.15;;
21168;SDS011;10742;51.816;8.662;2023-07-13T16:38:57;25.58;;;13.38;;
21168;SDS011;10742;51.816;8.662;2023-07-13T16:42:01;20.92;;;11.77;;
21168;SDS011;10742;51.816;8.662;2023-07-13T16:45:04;23.70;;;14.60;;
21168;SDS011;10742;51.816;8.662;2023-07-13T16:48:14;29.10;;;16.48;;
21168;SDS011;10742;51.816;8.662;2023-07-13T16:51:19;32.37;;;19.07;;
21168;SDS011;10742;51.816;8.662;2023-07-13T16:54:21;44.95;;;19.00;;
21168;SDS011;10742;51.816;8.662;2023-07-13T16:57:25;62.22;;;26.38;;
21168;SDS011;10742;51.816;8.662;2023-07-13T17:00:33;60.08;;;24.40;;
21168;SDS011;10742;51.816;8.662;2023-07-13T17:03:38;99.00;;;37.83;;
21168;SDS011;10742;51.816;8.662;2023-07-13T17:06:41;239.38;;;78.25;;
21168;SDS011;10742;51.816;8.662;2023-07-13T17:09:44;318.98;;;103.75;;
21168;SDS011;10742;51.816;8.662;2023-07-13T17:12:52;233.73;;;75.35;;
21168;SDS011;10742;51.816;8.662;2023-07-13T17:15:56;354.95;;;112.40;;
21168;SDS011;10742;51.816;8.662;2023-07-13T17:19:00;220.57;;;78.40;;
21168;SDS011;10742;51.816;8.662;2023-07-13T17:22:02;195.82;;;61.97;;
21168;SDS011;10742;51.816;8.662;2023-07-13T17:25:10;164.98;;;54.97;;
21168;SDS011;10742;51.816;8.662;2023-07-13T17:28:14;193.45;;;68.30;;
21168;SDS011;10742;51.816;8.662;2023-07-13T17:31:18;138.65;;;46.08;;
21168;SDS011;10742;51.816;8.662;2023-07-13T17:34:23;34.40;;;20.60;;
21168;SDS011;10742;51.816;8.662;2023-07-13T17:37:26;45.05;;;21.90;;
21168;SDS011;10742;51.816;8.662;2023-07-13T17:40:29;99.78;;;39.10;;
21168;SDS011;10742;51.816;8.662;2023-07-13T17:43:32;46.33;;;24.15;;
21168;SDS011;10742;51.816;8.662;2023-07-13T17:46:35;94.72;;;38.35;;
21168;SDS011;10742;51.816;8.662;2023-07-13T17:49:38;72.10;;;30.52;;
21168;SDS011;10742;51.816;8.662;2023-07-13T17:52:40;155.40;;;56.17;;
21168;SDS011;10742;51.816;8.662;2023-07-13T17:55:43;212.30;;;71.20;;
21168;SDS011;10742;51.816;8.662;2023-07-13T17:58:46;176.30;;;60.45;;
21168;SDS011;10742;51.816;8.662;2023-07-13T18:01:50;197.20;;;66.78;;
21168;SDS011;10742;51.816;8.662;2023-07-13T18:04:53;317.42;;;98.82;;
21168;SDS011;10742;51.816;8.662;2023-07-13T18:07:56;428.88;;;146.43;;
21168;SDS011;10742;51.816;8.662;2023-07-13T18:10:59;263.60;;;96.63;;
21168;SDS011;10742;51.816;8.662;2023-07-13T18:14:04;368.02;;;117.10;;
21168;SDS011;10742;51.816;8.662;2023-07-13T18:17:07;454.10;;;145.40;;
21168;SDS011;10742;51.816;8.662;2023-07-13T18:20:15;530.67;;;175.65;;
21168;SDS011;10742;51.816;8.662;2023-07-13T18:23:20;913.03;;;248.60;;
21168;SDS011;10742;51.816;8.662;2023-07-13T18:26:25;801.90;;;248.77;;
21168;SDS011;10742;51.816;8.662;2023-07-13T18:29:28;806.37;;;222.17;;
21168;SDS011;10742;51.816;8.662;2023-07-13T18:32:37;889.33;;;256.30;;
21168;SDS011;10742;51.816;8.662;2023-07-13T18:35:43;581.50;;;169.80;;
21168;SDS011;10742;51.816;8.662;2023-07-13T18:38:45;342.50;;;111.73;;
21168;SDS011;10742;51.816;8.662;2023-07-13T18:41:48;448.23;;;147.17;;
21168;SDS011;10742;51.816;8.662;2023-07-13T18:44:51;303.42;;;95.90;;
21168;SDS011;10742;51.816;8.662;2023-07-13T18:47:55;349.83;;;120.17;;
21168;SDS011;10742;51.816;8.662;2023-07-13T18:51:00;193.43;;;75.45;;
21168;SDS011;10742;51.816;8.662;2023-07-13T18:54:09;209.35;;;65.63;;
21168;SDS011;10742;51.816;8.662;2023-07-13T18:57:17;169.93;;;52.67;;
21168;SDS011;10742;51.816;8.662;2023-07-13T19:00:22;135.32;;;47.90;;
21168;SDS011;10742;51.816;8.662;2023-07-13T19:03:30;128.27;;;46.55;;
21168;SDS011;10742;51.816;8.662;2023-07-13T19:06:36;284.15;;;92.07;;
21168;SDS011;10742;51.816;8.662;2023-07-13T19:09:38;143.60;;;51.20;;